sensor_id;sensor_type;location;lat;lon;timestamp;temperature;humidity
36652;DHT22;53334;51.976;20.144;2023-08-01T00:00:35;25.40;51.80
36652;DHT22;53334;51.976;20.144;2023-08-01T00:03:08;25.50;51.80
36652;DHT22;53334;51.976;20.144;2023-08-01T00:05:44;25.40;51.80
36652;DHT22;53334;51.976;20.144;2023-08-01T00:08:17;25.40;51.80
36652;DHT22;53334;51.976;20.144;2023-08-01T00:10:50;25.50;51.80
36652;DHT22;53334;51.976;20.144;2023-08-01T00:13:24;25.40;51.70
36652;DHT22;53334;51.976;20.144;2023-08-01T00:15:57;25.40;51.70
36652;DHT22;53334;51.976;20.144;2023-08-01T00:18:33;25.40;51.70
36652;DHT22;53334;51.976;20.144;2023-08-01T00:21:08;25.40;51.60
36652;DHT22;53334;51.976;20.144;2023-08-01T00:23:43;25.40;51.60
36652;DHT22;53334;51.976;20.144;2023-08-01T00:26:16;25.40;51.60
36652;DHT22;53334;51.976;20.144;2023-08-01T00:28:49;25.40;51.60
36652;DHT22;53334;51.976;20.144;2023-08-01T00:31:23;25.40;51.60
36652;DHT22;53334;51.976;20.144;2023-08-01T00:33:56;25.40;51.50
36652;DHT22;53334;51.976;20.144;2023-08-01T00:36:31;25.40;51.50
36652;DHT22;53334;51.976;20.144;2023-08-01T00:39:04;25.40;51.50
36652;DHT22;53334;51.976;20.144;2023-08-01T00:41:37;25.40;51.50
36652;DHT22;53334;51.976;20.144;2023-08-01T00:44:11;25.40;51.40
36652;DHT22;53334;51.976;20.144;2023-08-01T00:46:44;25.40;51.40
36652;DHT22;53334;51.976;20.144;2023-08-01T00:49:17;25.40;51.40
36652;DHT22;53334;51.976;20.144;2023-08-01T00:51:52;25.40;51.40
36652;DHT22;53334;51.976;20.144;2023-08-01T00:54:26;25.40;51.40
36652;DHT22;53334;51.976;20.144;2023-08-01T00:56:59;25.40;51.40
36652;DHT22;53334;51.976;20.144;2023-08-01T00:59:32;25.40;51.40
36652;DHT22;53334;51.976;20.144;2023-08-01T01:02:07;25.40;51.30
36652;DHT22;53334;51.976;20.144;2023-08-01T01:04:40;25.40;51.30
36652;DHT22;53334;51.976;20.144;2023-08-01T01:07:16;25.40;51.30
36652;DHT22;53334;51.976;20.144;2023-08-01T01:09:50;25.40;51.20
36652;DHT22;53334;51.976;20.144;2023-08-01T01:12:23;25.40;51.20
36652;DHT22;53334;51.976;20.144;2023-08-01T01:14:58;25.40;51.20
36652;DHT22;53334;51.976;20.144;2023-08-01T01:17:31;25.40;51.20
36652;DHT22;53334;51.976;20.144;2023-08-01T01:20:05;25.40;51.10
36652;DHT22;53334;51.976;20.144;2023-08-01T01:22:41;25.40;51.20
36652;DHT22;53334;51.976;20.144;2023-08-01T01:25:17;25.40;51.90
36652;DHT22;53334;51.976;20.144;2023-08-01T01:27:52;25.40;52.30
36652;DHT22;53334;51.976;20.144;2023-08-01T01:30:27;25.40;52.40
36652;DHT22;53334;51.976;20.144;2023-08-01T01:33:01;25.40;52.40
36652;DHT22;53334;51.976;20.144;2023-08-01T01:35:36;25.40;52.40
36652;DHT22;53334;51.976;20.144;2023-08-01T01:38:10;25.40;52.40
36652;DHT22;53334;51.976;20.144;2023-08-01T01:40:44;25.50;52.50
36652;DHT22;53334;51.976;20.144;2023-08-01T01:43:17;25.50;52.60
36652;DHT22;53334;51.976;20.144;2023-08-01T01:45:50;25.50;52.60
36652;DHT22;53334;51.976;20.144;2023-08-01T01:48:24;25.50;52.70
36652;DHT22;53334;51.976;20.144;2023-08-01T01:50:57;25.50;52.80
36652;DHT22;53334;51.976;20.144;2023-08-01T01:53:32;25.50;52.80
36652;DHT22;53334;51.976;20.144;2023-08-01T01:56:05;25.50;52.90
36652;DHT22;53334;51.976;20.144;2023-08-01T01:58:39;25.50;52.90
36652;DHT22;53334;51.976;20.144;2023-08-01T02:01:12;25.50;53.00
36652;DHT22;53334;51.976;20.144;2023-08-01T02:03:45;25.50;52.90
36652;DHT22;53334;51.976;20.144;2023-08-01T02:06:19;25.50;53.00
36652;DHT22;53334;51.976;20.144;2023-08-01T02:08:54;25.50;53.10
36652;DHT22;53334;51.976;20.144;2023-08-01T02:11:30;25.50;53.10
36652;DHT22;53334;51.976;20.144;2023-08-01T02:14:03;25.50;53.10
36652;DHT22;53334;51.976;20.144;2023-08-01T02:16:37;25.50;53.00
36652;DHT22;53334;51.976;20.144;2023-08-01T02:19:10;25.50;53.00
36652;DHT22;53334;51.976;20.144;2023-08-01T02:21:44;25.50;53.00
36652;DHT22;53334;51.976;20.144;2023-08-01T02:24:18;25.50;53.00
36652;DHT22;53334;51.976;20.144;2023-08-01T02:26:52;25.50;53.10
36652;DHT22;53334;51.976;20.144;2023-08-01T02:29:25;25.50;53.10
36652;DHT22;53334;51.976;20.144;2023-08-01T02:31:58;25.50;53.20
36652;DHT22;53334;51.976;20.144;2023-08-01T02:34:32;25.50;53.20
36652;DHT22;53334;51.976;20.144;2023-08-01T02:37:05;25.50;53.10
36652;DHT22;53334;51.976;20.144;2023-08-01T02:39:40;25.50;53.10
36652;DHT22;53334;51.976;20.144;2023-08-01T02:42:14;25.50;53.20
36652;DHT22;53334;51.976;20.144;2023-08-01T02:44:47;25.50;53.30
36652;DHT22;53334;51.976;20.144;2023-08-01T02:47:20;25.50;53.30
36652;DHT22;53334;51.976;20.144;2023-08-01T02:49:54;25.50;53.30
36652;DHT22;53334;51.976;20.144;2023-08-01T02:52:28;25.50;53.30
36652;DHT22;53334;51.976;20.144;2023-08-01T02:55:03;25.50;53.40
36652;DHT22;53334;51.976;20.144;2023-08-01T02:57:37;25.50;53.50
36652;DHT22;53334;51.976;20.144;2023-08-01T03:00:10;25.50;53.40
36652;DHT22;53334;51.976;20.144;2023-08-01T03:02:44;25.50;53.40
36652;DHT22;53334;51.976;20.144;2023-08-01T03:05:18;25.50;53.50
36652;DHT22;53334;51.976;20.144;2023-08-01T03:07:51;25.50;53.50
36652;DHT22;53334;51.976;20.144;2023-08-01T03:10:25;25.50;53.60
36652;DHT22;53334;51.976;20.144;2023-08-01T03:13:08;25.50;53.70
36652;DHT22;53334;51.976;20.144;2023-08-01T03:15:41;25.50;53.70
36652;DHT22;53334;51.976;20.144;2023-08-01T03:18:15;25.50;53.80
36652;DHT22;53334;51.976;20.144;2023-08-01T03:20:48;25.50;53.80
36652;DHT22;53334;51.976;20.144;2023-08-01T03:23:21;25.50;53.70
36652;DHT22;53334;51.976;20.144;2023-08-01T03:25:56;25.50;53.70
36652;DHT22;53334;51.976;20.144;2023-08-01T03:28:30;25.50;53.80
36652;DHT22;53334;51.976;20.144;2023-08-01T03:31:03;25.50;53.80
36652;DHT22;53334;51.976;20.144;2023-08-01T03:33:36;25.50;53.90
36652;DHT22;53334;51.976;20.144;2023-08-01T03:36:10;25.50;53.90
36652;DHT22;53334;51.976;20.144;2023-08-01T03:38:43;25.50;53.90
36652;DHT22;53334;51.976;20.144;2023-08-01T03:41:18;25.50;53.90
36652;DHT22;53334;51.976;20.144;2023-08-01T03:43:52;25.50;53.90
36652;DHT22;53334;51.976;20.144;2023-08-01T03:46:25;25.50;53.90
36652;DHT22;53334;51.976;20.144;2023-08-01T03:48:59;25.50;53.90
36652;DHT22;53334;51.976;20.144;2023-08-01T03:51:32;25.50;53.90
36652;DHT22;53334;51.976;20.144;2023-08-01T03:54:05;25.50;54.40
36652;DHT22;53334;51.976;20.144;2023-08-01T03:56:46;25.50;54.20
36652;DHT22;53334;51.976;20.144;2023-08-01T03:59:19;25.50;54.20
36652;DHT22;53334;51.976;20.144;2023-08-01T04:01:53;25.50;54.20
36652;DHT22;53334;51.976;20.144;2023-08-01T04:04:26;25.60;54.30
36652;DHT22;53334;51.976;20.144;2023-08-01T04:07:00;25.50;54.10
36652;DHT22;53334;51.976;20.144;2023-08-01T04:09:33;25.50;54.10
36652;DHT22;53334;51.976;20.144;2023-08-01T04:12:08;25.50;54.10
36652;DHT22;53334;51.976;20.144;2023-08-01T04:14:41;25.50;54.10
36652;DHT22;53334;51.976;20.144;2023-08-01T04:17:15;25.50;54.10
36652;DHT22;53334;51.976;20.144;2023-08-01T04:19:49;25.50;54.10
36652;DHT22;53334;51.976;20.144;2023-08-01T04:22:22;25.50;54.10
36652;DHT22;53334;51.976;20.144;2023-08-01T04:24:55;25.50;54.20
36652;DHT22;53334;51.976;20.144;2023-08-01T04:27:30;25.60;54.30
36652;DHT22;53334;51.976;20.144;2023-08-01T04:30:04;25.50;54.10
36652;DHT22;53334;51.976;20.144;2023-08-01T04:32:38;25.50;54.10
36652;DHT22;53334;51.976;20.144;2023-08-01T04:35:11;25.60;54.20
36652;DHT22;53334;51.976;20.144;2023-08-01T04:37:44;25.60;54.30
36652;DHT22;53334;51.976;20.144;2023-08-01T04:40:18;25.50;54.20
36652;DHT22;53334;51.976;20.144;2023-08-01T04:42:52;25.50;54.30
36652;DHT22;53334;51.976;20.144;2023-08-01T04:45:25;25.60;54.40
36652;DHT22;53334;51.976;20.144;2023-08-01T04:47:59;25.60;54.40
36652;DHT22;53334;51.976;20.144;2023-08-01T04:50:32;25.60;54.30
36652;DHT22;53334;51.976;20.144;2023-08-01T04:53:05;25.60;54.20
36652;DHT22;53334;51.976;20.144;2023-08-01T04:55:40;25.60;54.20
36652;DHT22;53334;51.976;20.144;2023-08-01T04:58:14;25.60;54.20
36652;DHT22;53334;51.976;20.144;2023-08-01T05:00:47;25.60;54.20
36652;DHT22;53334;51.976;20.144;2023-08-01T05:03:21;25.60;54.20
36652;DHT22;53334;51.976;20.144;2023-08-01T05:05:54;25.60;54.10
36652;DHT22;53334;51.976;20.144;2023-08-01T05:08:27;25.60;54.10
36652;DHT22;53334;51.976;20.144;2023-08-01T05:11:01;25.60;54.10
36652;DHT22;53334;51.976;20.144;2023-08-01T05:13:35;25.60;54.20
36652;DHT22;53334;51.976;20.144;2023-08-01T05:16:09;25.60;54.30
36652;DHT22;53334;51.976;20.144;2023-08-01T05:18:42;25.60;54.30
36652;DHT22;53334;51.976;20.144;2023-08-01T05:21:15;25.60;54.30
36652;DHT22;53334;51.976;20.144;2023-08-01T05:23:48;25.60;54.30
36652;DHT22;53334;51.976;20.144;2023-08-01T05:26:22;25.60;54.30
36652;DHT22;53334;51.976;20.144;2023-08-01T05:28:57;25.60;54.50
36652;DHT22;53334;51.976;20.144;2023-08-01T05:31:30;25.60;54.50
36652;DHT22;53334;51.976;20.144;2023-08-01T05:34:03;25.60;55.00
36652;DHT22;53334;51.976;20.144;2023-08-01T05:36:36;25.60;54.40
36652;DHT22;53334;51.976;20.144;2023-08-01T05:39:10;25.60;54.50
36652;DHT22;53334;51.976;20.144;2023-08-01T05:41:43;25.60;54.40
36652;DHT22;53334;51.976;20.144;2023-08-01T05:44:18;25.60;54.40
36652;DHT22;53334;51.976;20.144;2023-08-01T05:46:51;25.60;54.40
36652;DHT22;53334;51.976;20.144;2023-08-01T05:49:24;25.60;54.40
36652;DHT22;53334;51.976;20.144;2023-08-01T05:51:58;25.60;54.50
36652;DHT22;53334;51.976;20.144;2023-08-01T05:54:31;25.60;54.50
36652;DHT22;53334;51.976;20.144;2023-08-01T05:57:06;25.60;54.40
36652;DHT22;53334;51.976;20.144;2023-08-01T05:59:40;25.60;54.30
36652;DHT22;53334;51.976;20.144;2023-08-01T06:02:14;25.60;54.20
36652;DHT22;53334;51.976;20.144;2023-08-01T06:04:47;25.60;54.20
36652;DHT22;53334;51.976;20.144;2023-08-01T06:07:20;25.60;54.20
36652;DHT22;53334;51.976;20.144;2023-08-01T06:09:55;25.60;54.20
36652;DHT22;53334;51.976;20.144;2023-08-01T06:12:28;25.60;54.10
36652;DHT22;53334;51.976;20.144;2023-08-01T06:15:04;25.60;54.70
36652;DHT22;53334;51.976;20.144;2023-08-01T06:17:37;25.60;54.10
36652;DHT22;53334;51.976;20.144;2023-08-01T06:20:11;25.60;54.10
36652;DHT22;53334;51.976;20.144;2023-08-01T06:22:45;25.60;54.10
36652;DHT22;53334;51.976;20.144;2023-08-01T06:25:18;25.60;54.10
36652;DHT22;53334;51.976;20.144;2023-08-01T06:27:51;25.60;54.20
36652;DHT22;53334;51.976;20.144;2023-08-01T06:30:26;25.60;54.10
36652;DHT22;53334;51.976;20.144;2023-08-01T06:32:59;25.60;54.10
36652;DHT22;53334;51.976;20.144;2023-08-01T06:35:33;25.60;54.10
36652;DHT22;53334;51.976;20.144;2023-08-01T06:38:06;25.60;54.10
36652;DHT22;53334;51.976;20.144;2023-08-01T06:40:39;25.60;54.10
36652;DHT22;53334;51.976;20.144;2023-08-01T06:43:13;25.60;54.10
36652;DHT22;53334;51.976;20.144;2023-08-01T06:45:47;25.60;54.20
36652;DHT22;53334;51.976;20.144;2023-08-01T06:48:20;25.60;54.80
36652;DHT22;53334;51.976;20.144;2023-08-01T06:50:54;25.60;54.20
36652;DHT22;53334;51.976;20.144;2023-08-01T06:53:27;25.60;54.10
36652;DHT22;53334;51.976;20.144;2023-08-01T06:56:00;25.60;54.00
36652;DHT22;53334;51.976;20.144;2023-08-01T06:58:34;25.60;52.20
36652;DHT22;53334;51.976;20.144;2023-08-01T07:01:08;25.60;51.40
36652;DHT22;53334;51.976;20.144;2023-08-01T07:03:42;25.50;51.10
36652;DHT22;53334;51.976;20.144;2023-08-01T07:06:15;25.50;51.10
36652;DHT22;53334;51.976;20.144;2023-08-01T07:08:48;25.50;51.00
36652;DHT22;53334;51.976;20.144;2023-08-01T07:11:22;25.50;50.90
36652;DHT22;53334;51.976;20.144;2023-08-01T07:13:55;25.50;50.90
36652;DHT22;53334;51.976;20.144;2023-08-01T07:16:30;25.50;50.90
36652;DHT22;53334;51.976;20.144;2023-08-01T07:19:03;25.50;50.90
36652;DHT22;53334;51.976;20.144;2023-08-01T07:21:36;25.50;51.00
36652;DHT22;53334;51.976;20.144;2023-08-01T07:24:10;25.50;51.00
36652;DHT22;53334;51.976;20.144;2023-08-01T07:26:43;25.50;51.20
36652;DHT22;53334;51.976;20.144;2023-08-01T07:29:16;25.50;51.10
36652;DHT22;53334;51.976;20.144;2023-08-01T07:31:52;25.50;50.50
36652;DHT22;53334;51.976;20.144;2023-08-01T07:34:26;25.50;50.30
36652;DHT22;53334;51.976;20.144;2023-08-01T07:36:59;25.50;49.90
36652;DHT22;53334;51.976;20.144;2023-08-01T07:39:32;25.40;49.70
36652;DHT22;53334;51.976;20.144;2023-08-01T07:42:06;25.40;49.40
36652;DHT22;53334;51.976;20.144;2023-08-01T07:44:40;25.40;49.10
36652;DHT22;53334;51.976;20.144;2023-08-01T07:47:14;25.40;48.90
36652;DHT22;53334;51.976;20.144;2023-08-01T07:49:47;25.30;48.70
36652;DHT22;53334;51.976;20.144;2023-08-01T07:52:21;25.30;48.50
36652;DHT22;53334;51.976;20.144;2023-08-01T07:54:54;25.30;48.60
36652;DHT22;53334;51.976;20.144;2023-08-01T07:57:29;25.30;47.80
36652;DHT22;53334;51.976;20.144;2023-08-01T08:00:04;25.20;47.30
36652;DHT22;53334;51.976;20.144;2023-08-01T08:02:46;25.20;47.00
36652;DHT22;53334;51.976;20.144;2023-08-01T08:05:20;25.20;46.80
36652;DHT22;53334;51.976;20.144;2023-08-01T08:07:53;25.20;46.70
36652;DHT22;53334;51.976;20.144;2023-08-01T08:10:26;25.10;46.90
36652;DHT22;53334;51.976;20.144;2023-08-01T08:13:00;25.20;46.60
36652;DHT22;53334;51.976;20.144;2023-08-01T08:15:33;25.20;46.80
36652;DHT22;53334;51.976;20.144;2023-08-01T08:18:09;25.10;46.50
36652;DHT22;53334;51.976;20.144;2023-08-01T08:20:44;25.10;46.40
36652;DHT22;53334;51.976;20.144;2023-08-01T08:23:17;25.10;46.40
36652;DHT22;53334;51.976;20.144;2023-08-01T08:25:51;25.10;46.40
36652;DHT22;53334;51.976;20.144;2023-08-01T08:28:28;25.00;46.40
36652;DHT22;53334;51.976;20.144;2023-08-01T08:31:03;25.10;46.30
36652;DHT22;53334;51.976;20.144;2023-08-01T08:33:37;25.00;46.20
36652;DHT22;53334;51.976;20.144;2023-08-01T08:36:11;25.00;46.00
36652;DHT22;53334;51.976;20.144;2023-08-01T08:38:44;25.00;46.20
36652;DHT22;53334;51.976;20.144;2023-08-01T08:41:20;25.00;46.00
36652;DHT22;53334;51.976;20.144;2023-08-01T08:43:56;25.00;45.90
36652;DHT22;53334;51.976;20.144;2023-08-01T08:46:31;25.00;45.70
36652;DHT22;53334;51.976;20.144;2023-08-01T08:49:08;25.00;45.60
36652;DHT22;53334;51.976;20.144;2023-08-01T08:51:43;25.00;45.50
36652;DHT22;53334;51.976;20.144;2023-08-01T08:54:17;25.00;45.50
36652;DHT22;53334;51.976;20.144;2023-08-01T08:56:51;25.00;45.60
36652;DHT22;53334;51.976;20.144;2023-08-01T08:59:25;25.00;46.70
36652;DHT22;53334;51.976;20.144;2023-08-01T09:02:01;25.00;47.30
36652;DHT22;53334;51.976;20.144;2023-08-01T09:04:36;25.00;47.60
36652;DHT22;53334;51.976;20.144;2023-08-01T09:07:10;25.00;47.70
36652;DHT22;53334;51.976;20.144;2023-08-01T09:09:44;25.00;47.80
36652;DHT22;53334;51.976;20.144;2023-08-01T09:12:17;25.00;47.80
36652;DHT22;53334;51.976;20.144;2023-08-01T09:14:51;25.00;47.90
36652;DHT22;53334;51.976;20.144;2023-08-01T09:17:24;25.00;48.10
36652;DHT22;53334;51.976;20.144;2023-08-01T09:20:04;25.00;48.30
36652;DHT22;53334;51.976;20.144;2023-08-01T09:22:42;25.10;48.50
36652;DHT22;53334;51.976;20.144;2023-08-01T09:25:16;25.10;49.20
36652;DHT22;53334;51.976;20.144;2023-08-01T09:27:49;25.10;48.70
36652;DHT22;53334;51.976;20.144;2023-08-01T09:30:22;25.10;48.70
36652;DHT22;53334;51.976;20.144;2023-08-01T09:32:56;25.10;48.80
36652;DHT22;53334;51.976;20.144;2023-08-01T09:35:38;25.10;48.80
36652;DHT22;53334;51.976;20.144;2023-08-01T09:38:15;25.10;48.80
36652;DHT22;53334;51.976;20.144;2023-08-01T09:40:48;25.20;48.80
36652;DHT22;53334;51.976;20.144;2023-08-01T09:43:22;25.20;48.80
36652;DHT22;53334;51.976;20.144;2023-08-01T09:45:55;25.10;48.70
36652;DHT22;53334;51.976;20.144;2023-08-01T09:48:30;25.20;48.80
36652;DHT22;53334;51.976;20.144;2023-08-01T09:51:08;25.20;48.90
36652;DHT22;53334;51.976;20.144;2023-08-01T09:53:50;25.20;49.00
36652;DHT22;53334;51.976;20.144;2023-08-01T09:56:25;25.20;49.50
36652;DHT22;53334;51.976;20.144;2023-08-01T09:58:59;25.20;49.00
36652;DHT22;53334;51.976;20.144;2023-08-01T10:01:33;25.20;49.00
36652;DHT22;53334;51.976;20.144;2023-08-01T10:04:07;25.20;49.10
36652;DHT22;53334;51.976;20.144;2023-08-01T10:06:43;25.20;49.20
36652;DHT22;53334;51.976;20.144;2023-08-01T10:09:18;25.20;49.40
36652;DHT22;53334;51.976;20.144;2023-08-01T10:11:51;25.20;49.70
36652;DHT22;53334;51.976;20.144;2023-08-01T10:14:25;25.20;50.30
36652;DHT22;53334;51.976;20.144;2023-08-01T10:16:59;25.20;50.60
36652;DHT22;53334;51.976;20.144;2023-08-01T10:19:33;25.20;51.00
36652;DHT22;53334;51.976;20.144;2023-08-01T10:22:08;25.20;51.30
36652;DHT22;53334;51.976;20.144;2023-08-01T10:24:43;25.20;51.40
36652;DHT22;53334;51.976;20.144;2023-08-01T10:27:19;25.20;51.30
36652;DHT22;53334;51.976;20.144;2023-08-01T10:29:59;25.30;51.80
36652;DHT22;53334;51.976;20.144;2023-08-01T10:32:35;25.30;52.50
36652;DHT22;53334;51.976;20.144;2023-08-01T10:35:09;25.30;52.70
36652;DHT22;53334;51.976;20.144;2023-08-01T10:37:44;25.30;53.10
36652;DHT22;53334;51.976;20.144;2023-08-01T10:40:19;25.30;53.40
36652;DHT22;53334;51.976;20.144;2023-08-01T10:42:52;25.30;54.00
36652;DHT22;53334;51.976;20.144;2023-08-01T10:45:25;25.40;53.70
36652;DHT22;53334;51.976;20.144;2023-08-01T10:48:08;25.40;53.80
36652;DHT22;53334;51.976;20.144;2023-08-01T10:50:42;25.40;53.90
36652;DHT22;53334;51.976;20.144;2023-08-01T10:53:17;25.40;53.80
36652;DHT22;53334;51.976;20.144;2023-08-01T10:55:50;25.40;53.80
36652;DHT22;53334;51.976;20.144;2023-08-01T10:58:26;25.40;53.70
36652;DHT22;53334;51.976;20.144;2023-08-01T11:01:00;25.40;53.70
36652;DHT22;53334;51.976;20.144;2023-08-01T11:03:34;25.40;53.70
36652;DHT22;53334;51.976;20.144;2023-08-01T11:06:08;25.40;53.70
36652;DHT22;53334;51.976;20.144;2023-08-01T11:08:43;25.40;53.80
36652;DHT22;53334;51.976;20.144;2023-08-01T11:11:16;25.50;53.90
36652;DHT22;53334;51.976;20.144;2023-08-01T11:13:51;25.50;54.10
36652;DHT22;53334;51.976;20.144;2023-08-01T11:16:25;25.50;54.10
36652;DHT22;53334;51.976;20.144;2023-08-01T11:18:58;25.50;54.20
36652;DHT22;53334;51.976;20.144;2023-08-01T11:21:32;25.50;54.30
36652;DHT22;53334;51.976;20.144;2023-08-01T11:24:09;25.50;54.40
36652;DHT22;53334;51.976;20.144;2023-08-01T11:26:43;25.50;54.50
36652;DHT22;53334;51.976;20.144;2023-08-01T11:29:18;25.50;54.50
36652;DHT22;53334;51.976;20.144;2023-08-01T11:31:53;25.50;54.50
36652;DHT22;53334;51.976;20.144;2023-08-01T11:34:26;25.50;54.50
36652;DHT22;53334;51.976;20.144;2023-08-01T11:37:00;25.50;54.40
36652;DHT22;53334;51.976;20.144;2023-08-01T11:39:35;25.50;54.40
36652;DHT22;53334;51.976;20.144;2023-08-01T11:42:14;25.50;54.50
36652;DHT22;53334;51.976;20.144;2023-08-01T11:44:48;25.50;54.50
36652;DHT22;53334;51.976;20.144;2023-08-01T11:47:21;25.50;54.50
36652;DHT22;53334;51.976;20.144;2023-08-01T11:49:55;25.50;54.50
36652;DHT22;53334;51.976;20.144;2023-08-01T11:52:28;25.60;54.60
36652;DHT22;53334;51.976;20.144;2023-08-01T11:55:05;25.60;54.70
36652;DHT22;53334;51.976;20.144;2023-08-01T11:57:38;25.60;54.70
36652;DHT22;53334;51.976;20.144;2023-08-01T12:00:21;25.50;54.60
36652;DHT22;53334;51.976;20.144;2023-08-01T12:03:05;25.60;54.70
36652;DHT22;53334;51.976;20.144;2023-08-01T12:05:38;25.60;54.90
36652;DHT22;53334;51.976;20.144;2023-08-01T12:08:14;25.60;54.80
36652;DHT22;53334;51.976;20.144;2023-08-01T12:10:49;25.60;54.90
36652;DHT22;53334;51.976;20.144;2023-08-01T12:13:23;25.60;55.00
36652;DHT22;53334;51.976;20.144;2023-08-01T12:15:57;25.60;55.00
36652;DHT22;53334;51.976;20.144;2023-08-01T12:18:32;25.60;55.10
36652;DHT22;53334;51.976;20.144;2023-08-01T12:21:08;25.60;55.20
36652;DHT22;53334;51.976;20.144;2023-08-01T12:23:41;25.60;55.10
36652;DHT22;53334;51.976;20.144;2023-08-01T12:26:16;25.60;55.10
36652;DHT22;53334;51.976;20.144;2023-08-01T12:28:49;25.60;55.00
36652;DHT22;53334;51.976;20.144;2023-08-01T12:31:23;25.60;54.90
36652;DHT22;53334;51.976;20.144;2023-08-01T12:33:56;25.60;55.00
36652;DHT22;53334;51.976;20.144;2023-08-01T12:36:30;25.60;55.00
36652;DHT22;53334;51.976;20.144;2023-08-01T12:39:03;25.60;55.10
36652;DHT22;53334;51.976;20.144;2023-08-01T12:41:43;25.60;55.30
36652;DHT22;53334;51.976;20.144;2023-08-01T12:44:17;25.60;55.20
36652;DHT22;53334;51.976;20.144;2023-08-01T12:46:50;25.60;55.40
36652;DHT22;53334;51.976;20.144;2023-08-01T12:49:23;25.60;55.40
36652;DHT22;53334;51.976;20.144;2023-08-01T12:51:57;25.60;55.40
36652;DHT22;53334;51.976;20.144;2023-08-01T12:54:30;25.60;55.40
36652;DHT22;53334;51.976;20.144;2023-08-01T12:57:05;25.60;55.30
36652;DHT22;53334;51.976;20.144;2023-08-01T12:59:39;25.60;55.30
36652;DHT22;53334;51.976;20.144;2023-08-01T13:02:13;25.60;55.40
36652;DHT22;53334;51.976;20.144;2023-08-01T13:04:46;25.60;55.40
36652;DHT22;53334;51.976;20.144;2023-08-01T13:07:19;25.60;55.40
36652;DHT22;53334;51.976;20.144;2023-08-01T13:09:53;25.60;55.40
36652;DHT22;53334;51.976;20.144;2023-08-01T13:12:27;25.60;55.40
36652;DHT22;53334;51.976;20.144;2023-08-01T13:15:01;25.60;55.60
36652;DHT22;53334;51.976;20.144;2023-08-01T13:17:47;25.60;55.60
36652;DHT22;53334;51.976;20.144;2023-08-01T13:20:21;25.60;55.50
36652;DHT22;53334;51.976;20.144;2023-08-01T13:22:54;25.60;55.50
36652;DHT22;53334;51.976;20.144;2023-08-01T13:25:28;25.60;55.70
36652;DHT22;53334;51.976;20.144;2023-08-01T13:28:03;25.60;56.10
36652;DHT22;53334;51.976;20.144;2023-08-01T13:30:36;25.60;56.50
36652;DHT22;53334;51.976;20.144;2023-08-01T13:33:09;25.60;57.40
36652;DHT22;53334;51.976;20.144;2023-08-01T13:35:43;25.60;58.90
36652;DHT22;53334;51.976;20.144;2023-08-01T13:38:16;25.60;60.10
36652;DHT22;53334;51.976;20.144;2023-08-01T13:40:49;25.70;61.30
36652;DHT22;53334;51.976;20.144;2023-08-01T13:43:25;25.70;62.10
36652;DHT22;53334;51.976;20.144;2023-08-01T13:45:58;25.70;62.50
36652;DHT22;53334;51.976;20.144;2023-08-01T13:48:34;25.70;62.00
36652;DHT22;53334;51.976;20.144;2023-08-01T13:51:07;25.70;60.80
36652;DHT22;53334;51.976;20.144;2023-08-01T13:53:41;25.70;60.00
36652;DHT22;53334;51.976;20.144;2023-08-01T13:56:15;25.70;59.50
36652;DHT22;53334;51.976;20.144;2023-08-01T13:58:49;25.70;59.40
36652;DHT22;53334;51.976;20.144;2023-08-01T14:01:22;25.70;59.70
36652;DHT22;53334;51.976;20.144;2023-08-01T14:03:56;25.70;59.60
36652;DHT22;53334;51.976;20.144;2023-08-01T14:06:29;25.70;59.60
36652;DHT22;53334;51.976;20.144;2023-08-01T14:09:03;25.70;59.50
36652;DHT22;53334;51.976;20.144;2023-08-01T14:11:36;25.80;59.30
36652;DHT22;53334;51.976;20.144;2023-08-01T14:14:11;25.70;58.90
36652;DHT22;53334;51.976;20.144;2023-08-01T14:16:46;25.70;58.60
36652;DHT22;53334;51.976;20.144;2023-08-01T14:19:20;25.70;58.50
36652;DHT22;53334;51.976;20.144;2023-08-01T14:21:54;25.70;58.30
36652;DHT22;53334;51.976;20.144;2023-08-01T14:24:40;25.70;58.10
36652;DHT22;53334;51.976;20.144;2023-08-01T14:27:15;25.70;58.00
36652;DHT22;53334;51.976;20.144;2023-08-01T14:29:48;25.70;57.90
36652;DHT22;53334;51.976;20.144;2023-08-01T14:32:26;25.70;58.40
36652;DHT22;53334;51.976;20.144;2023-08-01T14:34:59;25.70;57.80
36652;DHT22;53334;51.976;20.144;2023-08-01T14:37:32;25.70;57.70
36652;DHT22;53334;51.976;20.144;2023-08-01T14:40:08;25.70;57.80
36652;DHT22;53334;51.976;20.144;2023-08-01T14:42:41;25.70;57.80
36652;DHT22;53334;51.976;20.144;2023-08-01T14:45:15;25.70;57.80
36652;DHT22;53334;51.976;20.144;2023-08-01T14:47:48;25.70;58.00
36652;DHT22;53334;51.976;20.144;2023-08-01T14:50:22;25.70;58.10
36652;DHT22;53334;51.976;20.144;2023-08-01T14:52:55;25.70;57.90
36652;DHT22;53334;51.976;20.144;2023-08-01T14:55:30;25.70;57.80
36652;DHT22;53334;51.976;20.144;2023-08-01T14:58:03;25.70;57.80
36652;DHT22;53334;51.976;20.144;2023-08-01T15:00:37;25.70;58.00
36652;DHT22;53334;51.976;20.144;2023-08-01T15:03:10;25.70;58.30
36652;DHT22;53334;51.976;20.144;2023-08-01T15:05:43;25.70;58.20
36652;DHT22;53334;51.976;20.144;2023-08-01T15:08:17;25.70;58.00
36652;DHT22;53334;51.976;20.144;2023-08-01T15:10:51;25.70;57.90
36652;DHT22;53334;51.976;20.144;2023-08-01T15:13:25;25.70;57.80
36652;DHT22;53334;51.976;20.144;2023-08-01T15:15:58;25.70;57.80
36652;DHT22;53334;51.976;20.144;2023-08-01T15:18:32;25.70;57.80
36652;DHT22;53334;51.976;20.144;2023-08-01T15:21:05;25.70;57.70
36652;DHT22;53334;51.976;20.144;2023-08-01T15:23:38;25.70;57.70
36652;DHT22;53334;51.976;20.144;2023-08-01T15:26:13;25.70;58.00
36652;DHT22;53334;51.976;20.144;2023-08-01T15:28:46;25.70;58.30
36652;DHT22;53334;51.976;20.144;2023-08-01T15:31:19;25.70;58.40
36652;DHT22;53334;51.976;20.144;2023-08-01T15:33:52;25.70;58.50
36652;DHT22;53334;51.976;20.144;2023-08-01T15:36:28;25.70;58.60
36652;DHT22;53334;51.976;20.144;2023-08-01T15:39:01;25.70;59.20
36652;DHT22;53334;51.976;20.144;2023-08-01T15:41:36;25.70;58.70
36652;DHT22;53334;51.976;20.144;2023-08-01T15:44:09;25.70;58.60
36652;DHT22;53334;51.976;20.144;2023-08-01T15:46:42;25.80;58.80
36652;DHT22;53334;51.976;20.144;2023-08-01T15:49:16;25.70;59.00
36652;DHT22;53334;51.976;20.144;2023-08-01T15:51:49;25.70;59.10
36652;DHT22;53334;51.976;20.144;2023-08-01T15:54:22;25.70;59.10
36652;DHT22;53334;51.976;20.144;2023-08-01T15:56:57;25.80;59.10